Main page
METAR-TAF:

METAR-TAF

Airports :

Calhoun County Airport

Port Lavaca, Texas, United States

latitude: 28-39-14N, longitude: 096-40-52W, elevation: 30 ft

Current weather observation

The report was made 35 minutes ago, at 21:55 UTC
Wind 12 mph from the North
Temperature 77°F
Humidity 44%
Pressure 29.69 in. Hg
Visibility: 10 miles
Scattered clouds at a height of 3100 ft

METAR: KPKV 252155Z AUTO 01010KT 10SM SCT031 25/12 A2969 RMK AO2

Time: 16:30 (22:30 UTC)


TAF: missing

Weather observations and forecasts of more than 4000 airports (METAR and TAF reports).

The available stations are represented by yellow and red dots on the map.

Hover mouse over dot to see the name of the station.

Then click to see weather observations and forecasts.

To change the map : click on the green buttons with a black cross to zoom in, on the green button with a dash to zoom out, or on the green arrows for adjacent maps.


METAR-TAF: